createdAt,value
2018-12-24T13:39:55.356Z,83.58
2018-12-24T13:40:55.181Z,83.67
2018-12-24T13:41:55.142Z,82.81
2018-12-24T13:42:55.102Z,82.71
2018-12-24T13:43:55.062Z,82.62
2018-12-24T13:44:55.023Z,82.81
2018-12-24T13:45:54.985Z,83.76
2018-12-24T13:46:54.951Z,83.67
2018-12-24T13:47:54.913Z,84.14
2018-12-24T13:48:54.875Z,84.24
2018-12-24T13:49:54.846Z,83.53
2018-12-24T13:50:54.804Z,83.76
2018-12-24T13:51:54.782Z,84.67
2018-12-24T13:52:54.735Z,84.48
2018-12-24T13:53:54.698Z,84.10
2018-12-24T13:54:54.686Z,85.24
2018-12-24T13:55:54.632Z,85.72
2018-12-24T13:56:54.601Z,84.10
2018-12-24T13:57:54.561Z,83.44
2018-12-24T13:58:54.532Z,84.95
2018-12-24T13:59:54.496Z,85.24
2018-12-24T14:00:54.456Z,84.91
2018-12-24T14:01:54.444Z,84.05
2018-12-24T14:02:54.387Z,84.43
2018-12-24T14:03:54.357Z,82.91
2018-12-24T14:04:54.321Z,82.71
2018-12-24T14:05:54.286Z,83.00
2018-12-24T14:06:54.262Z,83.29
2018-12-24T14:07:54.224Z,83.29
2018-12-24T14:08:54.190Z,83.39
2018-12-24T14:09:54.150Z,82.53
2018-12-24T14:10:54.122Z,83.39
2018-12-24T14:11:54.093Z,84.43
2018-12-24T14:12:54.056Z,85.28
2018-12-24T14:13:54.021Z,85.66
2018-12-24T14:14:53.987Z,84.72
2018-12-24T14:15:53.956Z,84.91
2018-12-24T14:16:53.923Z,85.19
2018-12-24T14:17:53.886Z,85.10
2018-12-24T14:18:53.854Z,85.38
2018-12-24T14:19:53.816Z,85.28
2018-12-24T14:20:53.786Z,84.86
2018-12-24T14:21:53.757Z,84.91
2018-12-24T14:22:53.719Z,86.29
2018-12-24T14:23:53.687Z,87.14
2018-12-24T14:24:53.648Z,87.62
2018-12-24T14:25:53.618Z,87.34
2018-12-24T14:26:53.586Z,87.62
2018-12-24T14:27:53.547Z,87.34
2018-12-24T14:28:53.519Z,87.52
2018-12-24T14:29:53.480Z,86.86
2018-12-24T14:30:53.449Z,86.57
2018-12-24T14:31:53.419Z,86.95
2018-12-24T14:32:53.378Z,87.34
2018-12-24T14:33:53.349Z,88.28
2018-12-24T14:34:53.314Z,88.57
2018-12-24T14:35:53.280Z,89.23
2018-12-24T14:36:53.248Z,89.14
2018-12-24T14:37:53.212Z,89.19
2018-12-24T14:38:53.174Z,89.67
2018-12-24T14:39:53.146Z,89.28
2018-12-24T14:40:53.107Z,89.57
2018-12-24T14:41:53.078Z,89.47
2018-12-24T14:42:53.041Z,89.19
2018-12-24T14:43:53.012Z,89.67
2018-12-24T14:44:52.973Z,90.33
2018-12-24T14:45:52.939Z,90.71
2018-12-24T14:46:52.903Z,90.99
2018-12-24T14:47:52.891Z,91.66
2018-12-24T14:48:52.833Z,91.85
2018-12-24T14:49:52.800Z,92.04
2018-12-24T14:50:52.765Z,91.85
2018-12-24T14:51:52.732Z,92.51
2018-12-24T14:52:52.693Z,92.32
2018-12-24T14:53:52.664Z,92.61
2018-12-24T14:54:52.636Z,91.94
2018-12-24T14:55:52.597Z,91.85
2018-12-24T14:56:52.688Z,92.42
2018-12-24T14:57:52.524Z,94.23
2018-12-24T14:58:52.511Z,93.84
2018-12-24T14:59:52.453Z,94.42
2018-12-24T15:00:52.420Z,92.71
2018-12-24T15:01:52.387Z,92.80
2018-12-24T15:02:52.350Z,92.32
2018-12-24T15:03:52.317Z,90.52
2018-12-24T15:04:52.281Z,90.42
2018-12-24T15:05:52.245Z,91.56
2018-12-24T15:06:52.212Z,90.61
2018-12-24T15:07:52.176Z,89.86
2018-12-24T15:08:52.144Z,90.80
2018-12-24T15:09:52.107Z,90.90
2018-12-24T15:10:52.071Z,90.61
2018-12-24T15:11:52.034Z,90.52
2018-12-24T15:12:52.003Z,90.61
2018-12-24T15:13:51.968Z,90.14
2018-12-24T15:14:51.931Z,89.19
2018-12-24T15:15:51.901Z,89.00
2018-12-24T15:16:51.863Z,89.57
2018-12-24T15:17:51.828Z,90.33
2018-12-24T15:18:51.992Z,92.23
2018-12-24T15:19:51.759Z,92.04
2018-12-24T15:20:51.727Z,90.99
2018-12-24T15:21:51.688Z,90.61
2018-12-24T15:22:51.651Z,90.00
2018-12-24T15:23:51.620Z,90.76
2018-12-24T15:24:51.583Z,90.95
2018-12-24T15:25:51.548Z,91.04
2018-12-24T15:26:51.514Z,91.80
2018-12-24T15:27:51.479Z,91.89
2018-12-24T15:28:51.442Z,91.89
2018-12-24T15:29:51.407Z,92.09
2018-12-24T15:30:51.372Z,92.75
2018-12-24T15:31:51.337Z,92.66
2018-12-24T15:32:51.298Z,92.52
2018-12-24T15:33:51.263Z,92.71
2018-12-24T15:34:51.254Z,92.52
2018-12-24T15:35:51.216Z,93.56
2018-12-24T15:36:51.155Z,93.46
2018-12-24T15:37:51.122Z,93.08
2018-12-24T15:38:51.086Z,94.42
2018-12-24T15:39:51.051Z,94.60
2018-12-24T15:40:51.016Z,94.51
2018-12-24T15:41:50.979Z,94.32
2018-12-24T15:42:50.944Z,95.17
2018-12-24T15:43:50.908Z,95.27
2018-12-24T15:44:50.984Z,95.17
2018-12-24T15:45:50.835Z,96.22
2018-12-24T15:46:50.803Z,96.31
2018-12-24T15:47:50.763Z,97.26
2018-12-24T15:48:50.722Z,97.17
2018-12-24T15:49:50.689Z,96.88
2018-12-24T15:50:50.655Z,96.73
2018-12-24T15:51:50.619Z,97.21
2018-12-24T15:52:50.596Z,96.83
2018-12-24T15:53:50.551Z,96.92
2018-12-24T15:54:50.508Z,96.73
2018-12-24T15:55:50.478Z,96.17
2018-12-24T15:56:50.435Z,96.26
2018-12-24T15:57:50.401Z,96.73
2018-12-24T15:58:50.364Z,97.21
2018-12-24T15:59:50.328Z,97.12
2018-12-24T16:00:50.292Z,97.97
2018-12-24T16:01:50.250Z,97.50
2018-12-24T16:02:50.221Z,96.92
2018-12-24T16:03:50.183Z,96.55
2018-12-24T16:04:50.147Z,96.45
2018-12-24T16:05:50.109Z,96.92
2018-12-24T16:06:50.073Z,96.55
2018-12-24T16:07:50.032Z,96.92
2018-12-24T16:08:50.001Z,96.64
2018-12-24T16:09:49.964Z,96.17
2018-12-24T16:10:49.948Z,95.98
2018-12-24T16:11:49.890Z,96.45
2018-12-24T16:12:49.877Z,96.08
2018-12-24T16:13:49.818Z,95.69
2018-12-24T16:14:49.781Z,95.22
2018-12-24T16:15:49.746Z,95.79
2018-12-24T16:16:51.147Z,96.17
2018-12-24T16:17:49.668Z,96.73
2018-12-24T16:18:49.636Z,96.83
2018-12-24T16:19:49.598Z,96.26
2018-12-24T16:20:49.562Z,95.98
2018-12-24T16:21:49.526Z,95.88
2018-12-24T16:22:49.488Z,96.64
2018-12-24T16:23:49.457Z,97.02
2018-12-24T16:24:49.411Z,98.63
2018-12-24T16:25:49.376Z,98.16
2018-12-24T16:26:49.335Z,97.83
2018-12-24T16:27:49.305Z,97.31
2018-12-24T16:28:49.291Z,97.83
2018-12-24T16:29:49.231Z,98.58
2018-12-24T16:30:49.199Z,98.39
2018-12-24T16:31:49.156Z,97.54
2018-12-24T16:32:49.119Z,97.64
2018-12-24T16:33:49.076Z,97.92
2018-12-24T16:34:49.045Z,98.11
2018-12-24T16:35:49.010Z,97.45
2018-12-24T16:36:48.969Z,97.92
2018-12-24T16:37:51.500Z,99.06
2018-12-24T16:38:48.904Z,98.58
2018-12-24T16:39:48.866Z,99.53
2018-12-24T16:40:48.823Z,99.99
2018-12-24T16:41:48.790Z,99.99
2018-12-24T16:42:48.767Z,99.99
2018-12-24T16:43:48.731Z,99.99
2018-12-24T16:44:48.691Z,99.99
2018-12-24T16:45:48.638Z,99.99
2018-12-24T16:46:48.610Z,99.99
2018-12-24T16:47:48.560Z,99.99
2018-12-24T16:48:48.526Z,99.99
2018-12-24T16:49:48.487Z,99.99
2018-12-24T16:50:48.451Z,99.99
2018-12-24T16:51:48.414Z,99.99
2018-12-24T16:52:48.374Z,99.99
2018-12-24T16:53:48.332Z,99.99
2018-12-24T16:54:48.335Z,99.99
2018-12-24T16:55:48.375Z,99.99
2018-12-24T16:56:48.229Z,99.99
2018-12-24T16:57:48.187Z,99.99
2018-12-24T16:58:48.165Z,99.99
2018-12-24T16:59:48.113Z,99.99
2018-12-24T17:00:48.097Z,99.99
2018-12-24T17:01:48.035Z,99.99
2018-12-24T17:02:48.014Z,99.99
2018-12-24T17:03:47.971Z,99.99
2018-12-24T17:04:47.960Z,99.99
2018-12-24T17:05:47.984Z,99.99
2018-12-24T17:06:47.857Z,99.99
2018-12-24T17:07:47.809Z,99.99
2018-12-24T17:08:47.770Z,99.99
2018-12-24T17:09:47.761Z,99.99
2018-12-24T17:10:47.691Z,99.99
2018-12-24T17:11:47.660Z,99.99
2018-12-24T17:12:47.624Z,99.99
2018-12-24T17:13:47.583Z,99.99
2018-12-24T17:14:47.595Z,99.99
2018-12-24T17:15:47.508Z,99.99
2018-12-24T17:16:47.471Z,99.99
2018-12-24T17:17:47.441Z,99.99
2018-12-24T17:18:47.395Z,99.99
2018-12-24T17:19:47.370Z,99.99
2018-12-24T17:20:47.319Z,99.99
2018-12-24T17:21:47.284Z,99.99
2018-12-24T17:22:47.236Z,99.99
2018-12-24T17:23:47.757Z,99.99
2018-12-24T17:24:47.196Z,99.99
2018-12-24T17:25:47.152Z,99.99
2018-12-24T17:26:47.107Z,99.99
2018-12-24T17:27:47.058Z,99.99
2018-12-24T17:28:47.068Z,99.99
2018-12-24T17:29:46.977Z,99.99
2018-12-24T17:30:46.936Z,99.99
2018-12-24T17:31:46.925Z,99.99
2018-12-24T17:32:46.868Z,99.99
2018-12-24T17:33:46.847Z,99.99
2018-12-24T17:34:46.791Z,99.99
2018-12-24T17:35:46.754Z,99.99
2018-12-24T17:36:46.713Z,99.99
2018-12-24T17:37:46.762Z,99.99
2018-12-24T17:38:46.631Z,99.99
2018-12-24T17:39:46.604Z,99.99
2018-12-24T17:40:46.589Z,99.99
2018-12-24T17:41:46.529Z,99.99
2018-12-24T17:42:46.483Z,99.99
2018-12-24T17:43:46.453Z,99.99
2018-12-24T17:44:46.453Z,99.99
2018-12-24T17:45:46.364Z,99.99
2018-12-24T17:46:46.328Z,99.99
2018-12-24T17:47:46.297Z,99.99
2018-12-24T17:48:46.253Z,99.99
2018-12-24T17:49:46.215Z,99.99
2018-12-24T17:50:46.174Z,99.99
2018-12-24T17:51:46.225Z,99.99
2018-12-24T17:52:46.098Z,99.99
2018-12-24T17:53:46.759Z,99.99
2018-12-24T17:54:46.024Z,99.99
2018-12-24T17:55:46.016Z,99.99
2018-12-24T17:56:45.944Z,99.99
2018-12-24T17:57:45.908Z,99.99
2018-12-24T17:58:45.872Z,99.99
2018-12-24T17:59:45.832Z,99.99
2018-12-24T18:00:45.795Z,99.99
2018-12-24T18:01:45.759Z,99.99
2018-12-24T18:02:45.741Z,99.99
2018-12-24T18:03:45.679Z,99.99
2018-12-24T18:04:45.637Z,99.99
2018-12-24T18:05:45.597Z,99.99
2018-12-24T18:06:45.558Z,99.99
2018-12-24T18:07:45.529Z,99.99
2018-12-24T18:08:45.482Z,99.99
2018-12-24T18:09:45.477Z,99.99
2018-12-24T18:10:45.406Z,99.99
2018-12-24T18:11:45.369Z,99.99
2018-12-24T18:12:45.326Z,99.99
2018-12-24T18:13:45.286Z,99.99
2018-12-24T18:14:45.251Z,99.99
2018-12-24T18:15:45.223Z,99.99
2018-12-24T18:16:45.174Z,99.99
2018-12-24T18:17:45.145Z,99.99
2018-12-24T18:18:45.093Z,99.99
2018-12-24T18:19:45.063Z,99.99
2018-12-24T18:20:45.015Z,99.99
2018-12-24T18:21:44.983Z,99.99
2018-12-24T18:22:44.937Z,99.99
2018-12-24T18:23:44.901Z,99.99
2018-12-24T18:24:44.872Z,99.99
2018-12-24T18:25:44.829Z,99.99
2018-12-24T18:26:44.786Z,99.99
2018-12-24T18:27:44.799Z,99.99
2018-12-24T18:28:44.707Z,99.99
2018-12-24T18:29:44.668Z,99.99
2018-12-24T18:30:44.632Z,99.99
2018-12-24T18:31:44.589Z,99.99
2018-12-24T18:32:44.552Z,99.99
2018-12-24T18:33:44.516Z,99.99
2018-12-24T18:34:44.492Z,99.99
2018-12-24T18:35:44.437Z,99.99
2018-12-24T18:36:44.402Z,99.99
2018-12-24T18:37:44.356Z,99.99
2018-12-24T18:38:44.318Z,99.99
2018-12-24T18:39:44.283Z,99.99
2018-12-24T18:40:44.239Z,99.99
2018-12-24T18:41:44.211Z,99.99
2018-12-24T18:42:44.171Z,99.99
2018-12-24T18:43:44.128Z,99.99
2018-12-24T18:44:44.086Z,99.99
2018-12-24T18:45:44.048Z,99.99
2018-12-24T18:46:44.008Z,99.99
2018-12-24T18:47:43.975Z,99.99
2018-12-24T18:48:43.931Z,99.99
2018-12-24T18:49:43.893Z,99.99
2018-12-24T18:50:43.852Z,99.99
2018-12-24T18:51:43.815Z,99.99
2018-12-24T18:52:43.773Z,99.99
2018-12-24T18:53:43.762Z,99.99
2018-12-24T18:54:43.699Z,99.99
2018-12-24T18:55:43.657Z,99.99
2018-12-24T18:56:43.622Z,99.99
2018-12-24T18:57:43.580Z,99.99
2018-12-24T18:58:43.539Z,99.99
2018-12-24T18:59:43.507Z,99.99
2018-12-24T19:00:43.468Z,99.99
2018-12-24T19:01:43.426Z,99.99
2018-12-24T19:02:43.385Z,99.99
2018-12-24T19:03:43.346Z,99.99
2018-12-24T19:04:43.304Z,99.99
2018-12-24T19:05:43.266Z,99.99
2018-12-24T19:06:43.233Z,99.99
2018-12-24T19:07:43.190Z,99.99
2018-12-24T19:08:43.155Z,99.99
2018-12-24T19:09:43.112Z,99.99
2018-12-24T19:10:43.075Z,99.99
2018-12-24T19:11:43.038Z,99.99
2018-12-24T19:12:42.997Z,99.99
2018-12-24T19:13:42.960Z,99.99
2018-12-24T19:14:42.916Z,99.99
2018-12-24T19:15:42.874Z,99.99
2018-12-24T19:16:42.849Z,99.99
2018-12-24T19:17:42.794Z,99.99
2018-12-24T19:18:42.757Z,99.99
2018-12-24T19:19:42.718Z,99.99
2018-12-24T19:20:42.675Z,99.99
2018-12-24T19:21:44.024Z,99.99
2018-12-24T19:22:42.619Z,99.99
2018-12-24T19:23:42.561Z,99.99
2018-12-24T19:24:42.519Z,99.99
2018-12-24T19:25:42.481Z,99.99
2018-12-24T19:26:42.442Z,99.99
2018-12-24T19:27:42.401Z,99.99
2018-12-24T19:28:42.361Z,99.99
2018-12-24T19:29:42.322Z,99.99
2018-12-24T19:30:42.291Z,99.99
2018-12-24T19:31:42.244Z,99.99
2018-12-24T19:32:42.203Z,99.99
2018-12-24T19:33:42.170Z,99.99
2018-12-24T19:34:42.126Z,99.99
2018-12-24T19:35:42.090Z,99.99
2018-12-24T19:36:42.060Z,99.99
2018-12-24T19:37:42.006Z,99.99
2018-12-24T19:38:41.965Z,99.99
2018-12-24T19:39:41.930Z,99.99
2018-12-24T19:40:41.885Z,99.99
2018-12-24T19:41:41.852Z,99.99
2018-12-24T19:42:41.809Z,99.99
2018-12-24T19:43:41.824Z,99.99
2018-12-24T19:44:41.731Z,99.99
2018-12-24T19:45:41.703Z,99.99
2018-12-24T19:46:41.648Z,99.99
2018-12-24T19:47:49.685Z,99.99
2018-12-24T19:48:41.599Z,99.99
2018-12-24T19:49:41.530Z,99.99
2018-12-24T19:50:41.586Z,99.99
2018-12-24T19:51:41.459Z,99.99
2018-12-24T19:52:41.650Z,99.99
2018-12-24T19:53:41.395Z,99.99
2018-12-24T19:54:41.351Z,99.99
2018-12-24T19:55:41.301Z,99.99
2018-12-24T19:56:41.269Z,99.99
2018-12-24T19:57:41.212Z,99.99
2018-12-24T19:58:41.182Z,99.99
2018-12-24T19:59:41.137Z,99.99
2018-12-24T20:00:41.099Z,99.99
2018-12-24T20:01:41.060Z,99.99
2018-12-24T20:02:41.022Z,99.99
2018-12-24T20:03:40.982Z,99.99
2018-12-24T20:04:40.947Z,99.99
2018-12-24T20:05:40.915Z,99.99
2018-12-24T20:06:40.870Z,99.99
2018-12-24T20:07:40.818Z,99.99
2018-12-24T20:08:40.779Z,99.99
2018-12-24T20:09:40.749Z,99.99
2018-12-24T20:10:40.701Z,99.99
2018-12-24T20:11:40.661Z,99.99
2018-12-24T20:12:40.626Z,99.99
2018-12-24T20:13:40.580Z,99.99
2018-12-24T20:14:40.540Z,99.99
2018-12-24T20:15:40.521Z,99.99
2018-12-24T20:16:40.460Z,99.99
2018-12-24T20:17:40.422Z,99.99
2018-12-24T20:18:40.380Z,99.99
2018-12-24T20:19:40.341Z,99.99
2018-12-24T20:20:40.311Z,99.99
2018-12-24T20:21:40.269Z,99.99
2018-12-24T20:22:40.219Z,99.99
2018-12-24T20:23:40.199Z,99.99
2018-12-24T20:24:40.144Z,99.99
2018-12-24T20:25:40.105Z,99.99
2018-12-24T20:26:40.061Z,99.99
2018-12-24T20:27:40.050Z,99.99
2018-12-24T20:28:39.980Z,99.99
2018-12-24T20:29:39.940Z,99.99
2018-12-24T20:30:39.926Z,99.99
2018-12-24T20:31:39.861Z,99.99
2018-12-24T20:32:39.826Z,99.99
2018-12-24T20:33:39.792Z,99.99
2018-12-24T20:34:39.740Z,99.99
2018-12-24T20:35:39.705Z,99.99
2018-12-24T20:36:39.689Z,99.99
2018-12-24T20:37:39.643Z,99.99
2018-12-24T20:38:39.581Z,99.99
2018-12-24T20:39:39.541Z,99.99
2018-12-24T20:40:39.521Z,99.99
2018-12-24T20:41:40.245Z,99.99
2018-12-24T20:42:39.415Z,99.99
2018-12-24T20:43:39.381Z,99.99
2018-12-24T20:44:39.339Z,99.99
2018-12-24T20:45:39.299Z,99.99
2018-12-24T20:46:39.257Z,99.99
2018-12-24T20:47:39.226Z,99.99
2018-12-24T20:48:39.183Z,99.99
2018-12-24T20:49:39.138Z,99.99
2018-12-24T20:50:39.110Z,99.99
2018-12-24T20:51:39.057Z,99.99
2018-12-24T20:52:39.019Z,99.99
2018-12-24T20:53:38.995Z,99.99
2018-12-24T20:54:38.943Z,99.99
2018-12-24T20:55:38.899Z,99.99
2018-12-24T20:56:38.861Z,99.99
2018-12-24T20:57:38.819Z,99.99
2018-12-24T20:58:38.786Z,99.99
2018-12-24T20:59:38.740Z,99.99
2018-12-24T21:00:38.701Z,99.99
2018-12-24T21:01:38.670Z,99.99
2018-12-24T21:02:38.620Z,99.99
2018-12-24T21:03:38.598Z,99.99
2018-12-24T21:04:38.545Z,99.99
2018-12-24T21:05:38.501Z,99.99
2018-12-24T21:06:38.494Z,99.99
2018-12-24T21:07:38.425Z,99.99
2018-12-24T21:08:38.394Z,99.99
2018-12-24T21:09:38.342Z,99.99
2018-12-24T21:10:38.304Z,99.99
2018-12-24T21:11:38.258Z,99.99
2018-12-24T21:12:38.223Z,99.99
2018-12-24T21:13:38.189Z,99.99
2018-12-24T21:14:38.151Z,99.99
2018-12-24T21:15:38.145Z,99.99
2018-12-24T21:16:38.063Z,99.99
2018-12-24T21:17:38.036Z,99.99
2018-12-24T21:18:37.983Z,99.99
2018-12-24T21:19:37.952Z,99.99
2018-12-24T21:20:37.902Z,99.99
2018-12-24T21:21:37.856Z,99.99
2018-12-24T21:22:37.818Z,99.99
2018-12-24T21:23:37.808Z,99.99
2018-12-24T21:24:37.755Z,99.99
2018-12-24T21:25:37.698Z,99.99
2018-12-24T21:26:37.737Z,99.99
2018-12-24T21:27:37.621Z,99.99
2018-12-24T21:28:37.578Z,99.99
2018-12-24T21:29:37.539Z,99.99
2018-12-24T21:30:37.501Z,99.99
2018-12-24T21:31:37.456Z,99.99
2018-12-24T21:32:37.422Z,99.99
2018-12-24T21:33:37.409Z,99.99
2018-12-24T21:34:37.359Z,99.99
2018-12-24T21:35:37.302Z,99.99
2018-12-24T21:36:37.252Z,99.99
2018-12-24T21:37:37.210Z,99.99
2018-12-24T21:38:37.179Z,99.99
2018-12-24T21:39:37.137Z,99.99
2018-12-24T21:40:37.110Z,99.99
2018-12-24T21:41:37.060Z,99.99
2018-12-24T21:42:37.028Z,99.99
2018-12-24T21:43:36.979Z,99.99
2018-12-24T21:44:36.931Z,99.99
2018-12-24T21:45:36.905Z,99.99
2018-12-24T21:46:36.849Z,99.99
2018-12-24T21:47:36.815Z,99.99
2018-12-24T21:48:36.766Z,99.99
2018-12-24T21:49:36.760Z,99.99
2018-12-24T21:50:36.689Z,99.99
2018-12-24T21:51:36.650Z,99.99
2018-12-24T21:52:36.606Z,99.99
2018-12-24T21:53:36.563Z,99.99
2018-12-24T21:54:36.522Z,99.99
2018-12-24T21:55:36.485Z,99.99
2018-12-24T21:56:36.896Z,99.99
2018-12-24T21:57:36.409Z,99.99
2018-12-24T21:58:36.398Z,99.99
2018-12-24T21:59:36.324Z,99.99
2018-12-24T22:00:36.282Z,99.99
2018-12-24T22:01:36.235Z,99.99
2018-12-24T22:02:36.209Z,99.99
2018-12-24T22:03:36.174Z,99.99
2018-12-24T22:04:36.120Z,99.99
2018-12-24T22:05:36.081Z,99.99
2018-12-24T22:06:36.062Z,99.99
2018-12-24T22:07:36.001Z,99.99
2018-12-24T22:08:35.961Z,99.99
2018-12-24T22:09:35.920Z,99.99
2018-12-24T22:10:35.871Z,99.99
2018-12-24T22:11:35.840Z,99.99
2018-12-24T22:12:35.881Z,99.99
2018-12-24T22:13:35.874Z,99.99
2018-12-24T22:14:35.708Z,99.99
2018-12-24T22:15:35.676Z,99.99
2018-12-24T22:16:35.629Z,99.99
2018-12-24T22:17:35.587Z,99.99
2018-12-24T22:18:35.560Z,99.99
2018-12-24T22:19:35.510Z,99.99
2018-12-24T22:20:35.464Z,99.99
2018-12-24T22:21:35.426Z,99.99
2018-12-24T22:22:35.387Z,99.99
2018-12-24T22:23:35.355Z,99.99
2018-12-24T22:24:35.298Z,99.99
2018-12-24T22:25:35.266Z,99.99
2018-12-24T22:26:35.217Z,99.99
2018-12-24T22:27:35.177Z,99.99
2018-12-24T22:28:35.154Z,99.99
2018-12-24T22:29:35.100Z,99.99
2018-12-24T22:30:35.057Z,99.99
2018-12-24T22:31:35.020Z,99.99
2018-12-24T22:32:34.970Z,99.99
2018-12-24T22:33:34.948Z,99.99
2018-12-24T22:34:34.931Z,99.99
2018-12-24T22:35:34.851Z,99.99
2018-12-24T22:36:34.807Z,99.99
2018-12-24T22:37:34.773Z,99.99
2018-12-24T22:38:34.723Z,99.99
2018-12-24T22:39:34.692Z,99.99
2018-12-24T22:40:34.647Z,99.99
2018-12-24T22:41:34.610Z,99.99
2018-12-24T22:42:34.561Z,99.99
2018-12-24T22:43:34.528Z,99.99
2018-12-24T22:44:34.480Z,99.99
2018-12-24T22:45:34.438Z,99.99
2018-12-24T22:46:34.453Z,99.99
2018-12-24T22:47:34.366Z,99.99
2018-12-24T22:48:40.682Z,99.99
2018-12-24T22:49:34.278Z,99.99
2018-12-24T22:50:34.236Z,99.99
2018-12-24T22:51:34.207Z,99.99
2018-12-24T22:52:34.153Z,99.99
2018-12-24T22:53:34.119Z,99.99
2018-12-24T22:54:34.081Z,99.99
2018-12-24T22:55:34.030Z,99.99
2018-12-24T22:56:33.991Z,99.99
2018-12-24T22:57:33.950Z,99.99
2018-12-24T22:58:33.906Z,99.99
2018-12-24T22:59:33.877Z,99.99
2018-12-24T23:00:33.826Z,99.99
2018-12-24T23:01:33.789Z,99.99
2018-12-24T23:02:33.751Z,99.99
2018-12-24T23:03:33.710Z,99.99
2018-12-24T23:04:33.663Z,99.99
2018-12-24T23:05:34.028Z,99.99
2018-12-24T23:06:33.585Z,99.99
2018-12-24T23:07:33.610Z,99.99
2018-12-24T23:08:33.496Z,99.99
2018-12-24T23:09:33.456Z,99.99
2018-12-24T23:10:33.421Z,99.99
2018-12-24T23:11:33.385Z,99.99
2018-12-24T23:12:33.371Z,99.99
2018-12-24T23:13:33.301Z,99.99
2018-12-24T23:14:33.255Z,99.99
2018-12-24T23:15:33.214Z,99.99
2018-12-24T23:16:33.169Z,99.99
2018-12-24T23:17:33.134Z,99.99
2018-12-24T23:18:33.097Z,99.99
2018-12-24T23:19:33.054Z,99.99
2018-12-24T23:20:33.006Z,99.99
2018-12-24T23:21:32.967Z,99.99
2018-12-24T23:22:32.925Z,99.99
2018-12-24T23:23:32.890Z,99.99
2018-12-24T23:24:32.852Z,99.99
2018-12-24T23:25:32.804Z,99.99
2018-12-24T23:26:32.863Z,99.99
2018-12-24T23:27:32.728Z,99.99
2018-12-24T23:28:32.776Z,99.99
2018-12-24T23:29:32.640Z,99.99
2018-12-24T23:30:32.624Z,99.99
2018-12-24T23:31:32.563Z,99.99
2018-12-24T23:32:32.522Z,99.99
2018-12-24T23:33:32.485Z,99.99
2018-12-24T23:34:32.442Z,99.99
2018-12-24T23:35:32.394Z,99.99
2018-12-24T23:36:32.371Z,99.99
2018-12-24T23:37:32.326Z,99.99
2018-12-24T23:38:32.273Z,99.99
2018-12-24T23:39:32.238Z,99.99
2018-12-24T23:40:32.197Z,99.99
2018-12-24T23:41:32.178Z,99.99
2018-12-24T23:42:32.116Z,99.99
2018-12-24T23:43:32.078Z,99.99
2018-12-24T23:44:32.032Z,99.99
2018-12-24T23:45:31.997Z,99.99
2018-12-24T23:46:31.954Z,99.99
2018-12-24T23:47:31.909Z,99.99
2018-12-24T23:48:31.874Z,99.99
2018-12-24T23:49:31.837Z,99.99
2018-12-24T23:50:31.794Z,99.99
2018-12-24T23:51:31.751Z,99.99
2018-12-24T23:52:31.711Z,99.99
2018-12-24T23:53:31.666Z,99.99
2018-12-24T23:54:31.646Z,99.99
2018-12-24T23:55:31.592Z,99.99
2018-12-24T23:56:31.546Z,99.99
2018-12-24T23:57:31.507Z,99.99
2018-12-24T23:58:31.469Z,99.99
2018-12-24T23:59:31.434Z,99.99
